Terminal Aerodrome Forecast
Issued by NWS Billings, MT

Home | Current Version | Previous Version | Graphics & Text | Print | Product List | Glossary On
Versions: 1 2 3 4 5 6 7 8 9 10 11 12 13 14 15 16 17 18 19 20 21 22 23 24 25 26 27 28 29 30 31 32 33 34 35 36
000
FTUS45 KBYZ 232007 AAA
TAFMLS
TAF AMD
KMLS 232007Z 2320/2418 07011KT P6SM FEW012
     FM240200 10011KT P6SM VCSH BKN070
     FM240700 34010KT P6SM SCT015 BKN050
     FM241000 32008KT P6SM BKN015=

USA.gov is the U.S. government's official web portal to all federal, state and local government web resources and services.